地図

経路データ

SID SEASON NUMBER BASIN SUBBASIN NAME ISO_TIME NATURE LAT LON WMO_WIND WMO_PRES WMO_AGENCY TRACK_TYPE DIST2LAND LANDFALL IFLAG USA_AGENCY USA_ATCF_ID USA_LAT USA_LON USA_RECORD USA_STATUS USA_WIND USA_PRES USA_SSHS USA_R34_NE USA_R34_SE USA_R34_SW USA_R34_NW USA_R50_NE USA_R50_SE USA_R50_SW USA_R50_NW USA_R64_NE USA_R64_SE USA_R64_SW USA_R64_NW USA_POCI USA_ROCI USA_RMW USA_EYE TOKYO_LAT TOKYO_LON TOKYO_GRADE TOKYO_WIND TOKYO_PRES TOKYO_R50_DIR TOKYO_R50_LONG TOKYO_R50_SHORT TOKYO_R30_DIR TOKYO_R30_LONG TOKYO_R30_SHORT TOKYO_LAND CMA_LAT CMA_LON CMA_CAT CMA_WIND CMA_PRES HKO_LAT HKO_LON HKO_CAT HKO_WIND HKO_PRES NEWDELHI_LAT NEWDELHI_LON NEWDELHI_GRADE NEWDELHI_WIND NEWDELHI_PRES NEWDELHI_CI NEWDELHI_DP NEWDELHI_POCI REUNION_LAT REUNION_LON REUNION_TYPE REUNION_WIND REUNION_PRES REUNION_TNUM REUNION_CI REUNION_RMW REUNION_R34_NE REUNION_R34_SE REUNION_R34_SW REUNION_R34_NW REUNION_R50_NE REUNION_R50_SE REUNION_R50_SW REUNION_R50_NW REUNION_R64_NE REUNION_R64_SE REUNION_R64_SW REUNION_R64_NW BOM_LAT BOM_LON BOM_TYPE BOM_WIND BOM_PRES BOM_TNUM BOM_CI BOM_RMW BOM_R34_NE BOM_R34_SE BOM_R34_SW BOM_R34_NW BOM_R50_NE BOM_R50_SE BOM_R50_SW BOM_R50_NW BOM_R64_NE BOM_R64_SE BOM_R64_SW BOM_R64_NW BOM_ROCI BOM_POCI BOM_EYE BOM_POS_METHOD BOM_PRES_METHOD NADI_LAT NADI_LON NADI_CAT NADI_WIND NADI_PRES WELLINGTON_LAT WELLINGTON_LON WELLINGTON_WIND WELLINGTON_PRES DS824_LAT DS824_LON DS824_STAGE DS824_WIND DS824_PRES TD9636_LAT TD9636_LON TD9636_STAGE TD9636_WIND TD9636_PRES TD9635_LAT TD9635_LON TD9635_WIND TD9635_PRES TD9635_ROCI NEUMANN_LAT NEUMANN_LON NEUMANN_CLASS NEUMANN_WIND NEUMANN_PRES MLC_LAT MLC_LON MLC_CLASS MLC_WIND MLC_PRES USA_GUST BOM_GUST BOM_GUST_PER REUNION_GUST REUNION_GUST_PER USA_SEAHGT USA_SEARAD_NE USA_SEARAD_SE USA_SEARAD_SW USA_SEARAD_NW STORM_SPEED STORM_DIR
2003223N13224 2003 56 EP MM NOT_NAMED 2003-08-11 00:00:00 TS 12.5000 -136.500 25 1009 hurdat_epa main 2105 2002 O_____________ hurdat_epa CP012003 12.5000 -136.500 TD 25 1009 -1 23 267
2003223N13224 2003 56 EP MM NOT_NAMED 2003-08-11 03:00:00 TS 12.4460 -137.670 main 1992 1894 P_____________ CP012003 12.4460 -137.670 TD 25 1009 -1 23 267
2003223N13224 2003 56 EP MM NOT_NAMED 2003-08-11 06:00:00 TS 12.4000 -138.800 25 1009 hurdat_epa main 1885 1788 O_____________ hurdat_epa CP012003 12.4000 -138.800 TD 25 1009 -1 21 268
2003223N13224 2003 56 EP MM NOT_NAMED 2003-08-11 09:00:00 TS 12.3647 -139.852 main 1779 1699 P_____________ CP012003 12.3647 -139.852 TD 25 1009 -1 20 267
2003223N13224 2003 56 EP CP NOT_NAMED 2003-08-11 12:00:00 TS 12.3000 -140.800 25 1009 hurdat_epa main 1699 1630 O_____________ hurdat_epa CP012003 12.3000 -140.800 TD 25 1009 -1 18 264
2003223N13224 2003 56 EP CP NOT_NAMED 2003-08-11 15:00:00 TS 12.1647 -141.653 main 1621 1569 P_____________ CP012003 12.1647 -141.653 TD 25 1009 -1 16 259
2003223N13224 2003 56 EP CP NOT_NAMED 2003-08-11 18:00:00 TS 12.0000 -142.400 25 1009 hurdat_epa main 1569 1513 O_____________ hurdat_epa CP012003 12.0000 -142.400 TD 25 1009 -1 15 257
2003223N13224 2003 56 EP CP NOT_NAMED 2003-08-11 21:00:00 TS 11.8424 -143.110 main 1519 1474 P_____________ CP012003 11.8424 -143.110 TD 25 1009 -1 13 257
2003223N13224 2003 56 EP CP NOT_NAMED 2003-08-12 00:00:00 TS 11.7000 -143.700 25 1009 hurdat_epa main 1474 1447 O_____________ hurdat_epa CP012003 11.7000 -143.700 TD 25 1009 -1 11 256
2003223N13224 2003 56 EP CP NOT_NAMED 2003-08-12 03:00:00 TS 11.5849 -144.167 main 1438 1420 P_____________ CP012003 11.5849 -144.167 TD 25 1009 -1 8 256
2003223N13224 2003 56 EP CP NOT_NAMED 2003-08-12 06:00:00 TS 11.5000 -144.500 25 1009 hurdat_epa main 1420 1404 O_____________ hurdat_epa CP012003 11.5000 -144.500 TD 25 1009 -1 6 256
2003223N13224 2003 56 EP CP NOT_NAMED 2003-08-12 09:00:00 TS 11.4499 -144.737 main 1411 1395 P_____________ CP012003 11.4499 -144.737 TD 25 1009 -1 4 256
2003223N13224 2003 56 EP CP NOT_NAMED 2003-08-12 12:00:00 TS 11.4000 -144.900 25 1009 hurdat_epa main 1395 1386 O_____________ hurdat_epa CP012003 11.4000 -144.900 TD 25 1009 -1 4 246
2003223N13224 2003 56 EP CP NOT_NAMED 2003-08-12 15:00:00 TS 11.3075 -145.065 main 1386 1386 P_____________ CP012003 11.3075 -145.065 TD 25 1009 -1 4 236
2003223N13224 2003 56 EP CP NOT_NAMED 2003-08-12 18:00:00 TS 11.2000 -145.200 25 1009 hurdat_epa main 1386 1378 O_____________ hurdat_epa CP012003 11.2000 -145.200 TD 25 1009 -1 1010 150 4 232
2003223N13224 2003 56 EP CP NOT_NAMED 2003-08-12 21:00:00 TS 11.0850 -145.353 main 1378 1378 P_____________ CP012003 11.0850 -145.353 TD 25 1009 -1 1010 150 3 225
2003223N13224 2003 56 EP CP NOT_NAMED 2003-08-13 00:00:00 TS 11.0000 -145.400 25 1009 hurdat_epa main 1385 1385 O_____________ hurdat_epa CP012003 11.0000 -145.400 TD 25 1009 -1 1010 150 2 150
2003223N13224 2003 56 EP CP NOT_NAMED 2003-08-13 03:00:00 TS 10.9400 -145.260 main 1401 1401 P_____________ CP012003 10.9400 -145.260 TD 25 1009 -1 1010 95 4 90
2003223N13224 2003 56 EP CP NOT_NAMED 2003-08-13 06:00:00 TS 11.0000 -145.000 25 1009 hurdat_epa main 1417 1417 O_____________ hurdat_epa CP012003 11.0000 -145.000 TD 25 1009 -1 1010 40 6 61
2003223N13224 2003 56 EP CP NOT_NAMED 2003-08-13 09:00:00 TS 11.2476 -144.700 main 1426 1418 P_____________ CP012003 11.2476 -144.700 TD 25 1009 -1 8 44
2003223N13224 2003 56 EP CP NOT_NAMED 2003-08-13 12:00:00 TS 11.6000 -144.400 25 1009 hurdat_epa main 1421 1414 O_____________ hurdat_epa CP012003 11.6000 -144.400 TD 25 1009 -1 9 37
2003223N13224 2003 56 EP CP NOT_NAMED 2003-08-13 15:00:00 TS 11.9350 -144.170 main 1417 1405 P_____________ CP012003 11.9350 -144.170 TD 25 1009 -1 8 29
2003223N13224 2003 56 EP CP NOT_NAMED 2003-08-13 18:00:00 TS 12.3000 -144.000 25 1009 hurdat_epa main 1407 1390 O_____________ hurdat_epa CP012003 12.3000 -144.000 TD 25 1009 -1 8 21
2003223N13224 2003 56 EP CP NOT_NAMED 2003-08-13 21:00:00 TS 12.6925 -143.877 main 1390 1374 P_____________ CP012003 12.6925 -143.877 TD 25 1009 -1 8 14
2003223N13224 2003 56 EP CP NOT_NAMED 2003-08-14 00:00:00 TS 13.1000 -143.800 25 1009 hurdat_epa main 1374 1360 O_____________ hurdat_epa CP012003 13.1000 -143.800 TD 25 1009 -1 9 11
2003223N13224 2003 56 EP CP NOT_NAMED 2003-08-14 03:00:00 TS 13.5375 -143.705 main 1360 1337 P_____________ CP012003 13.5375 -143.705 TD 25 1009 -1 8 7
2003223N13224 2003 56 EP CP NOT_NAMED 2003-08-14 06:00:00 TS 13.9000 -143.700 25 1009 hurdat_epa main 1337 1317 O_____________ hurdat_epa CP012003 13.9000 -143.700 TD 25 1009 -1 6 348
2003223N13224 2003 56 EP CP NOT_NAMED 2003-08-14 09:00:00 TS 14.1174 -143.825 main 1317 1283 P_____________ CP012003 14.1174 -143.825 TD 25 1009 -1 5 308
2003223N13224 2003 56 EP CP NOT_NAMED 2003-08-14 12:00:00 TS 14.2000 -144.100 25 1009 hurdat_epa main 1283 1255 O_____________ hurdat_epa CP012003 14.2000 -144.100 TD 25 1009 -1 1010 150 6 276
2003223N13224 2003 56 EP CP NOT_NAMED 2003-08-14 15:00:00 TS 14.1797 -144.460 main 1246 1205 P_____________ CP012003 14.1797 -144.460 TD 25 1009 -1 9 263
2003223N13224 2003 56 EP CP NOT_NAMED 2003-08-14 18:00:00 TS 14.1000 -145.000 25 1009 hurdat_epa main 1205 1141 O_____________ hurdat_epa CP012003 14.1000 -145.000 TD 25 1009 -1 13 265
2003223N13224 2003 56 EP CP NOT_NAMED 2003-08-14 21:00:00 TS 14.0653 -145.762 main 1132 1068 P_____________ CP012003 14.0653 -145.762 TD 25 1009 -1 16 266
2003223N13224 2003 56 EP CP NOT_NAMED 2003-08-15 00:00:00 TS 14.0000 -146.600 25 1009 hurdat_epa main 1068 1015 O_____________ hurdat_epa CP012003 14.0000 -146.600 TD 25 1009 -1 15 262
2003223N13224 2003 56 EP CP NOT_NAMED 2003-08-15 03:00:00 TS 13.8497 -147.323 main 1022 972 P_____________ CP012003 13.8497 -147.323 TD 25 1009 -1 14 258
2003223N13224 2003 56 EP CP NOT_NAMED 2003-08-15 06:00:00 TS 13.7000 -148.000 25 1009 hurdat_epa main 972 933 O_____________ hurdat_epa CP012003 13.7000 -148.000 TD 25 1009 -1 1010 120 40 13 259
2003223N13224 2003 56 EP CP NOT_NAMED 2003-08-15 09:00:00 TS 13.6120 -148.628 main 933 881 P_____________ CP012003 13.6120 -148.628 TD 25 1009 -1 13 265
2003223N13224 2003 56 EP CP NOT_NAMED 2003-08-15 12:00:00 TS 13.6000 -149.300 25 1009 hurdat_epa main 881 815 O_____________ hurdat_epa CP012003 13.6000 -149.300 TD 25 1009 -1 14 273
2003223N13224 2003 56 EP CP NOT_NAMED 2003-08-15 15:00:00 TS 13.6848 -150.105 main 815 754 P_____________ CP012003 13.6848 -150.105 TD 27 1009 -1 17 276
2003223N13224 2003 56 EP CP NOT_NAMED 2003-08-15 18:00:00 TS 13.7778 -151.000 30 1009 hurdat_epa main 748 698 O_____________ hurdat_epa CP012003 13.8000 -151.000 TD 30 1009 -1 1010 120 40 18 274
2003223N13224 2003 56 EP CP NOT_NAMED 2003-08-15 21:00:00 TS 13.8237 -151.963 main 693 634 P_____________ CP012003 13.8425 -151.958 TD 30 1009 -1 1010 120 40 19 274
2003223N13224 2003 56 EP CP NOT_NAMED 2003-08-16 00:00:00 TS 13.9000 -152.900 30 1009 hurdat_epa main 634 588 O_____________ hurdat_epa CP012003 13.9000 -152.900 TD 30 1009 -1 1010 120 40 17 277
2003223N13224 2003 56 EP CP NOT_NAMED 2003-08-16 03:00:00 TS 14.0472 -153.733 main 588 543 P_____________ CP012003 14.0423 -153.752 TD 30 1009 -1 1010 120 40 16 281
2003223N13224 2003 56 EP CP NOT_NAMED 2003-08-16 06:00:00 TS 14.2000 -154.467 30 1009 hurdat_epa main 541 518 O_____________ hurdat_epa CP012003 14.2000 -154.500 TD 30 1009 -1 1010 120 40 14 281
2003223N13224 2003 56 EP CP NOT_NAMED 2003-08-16 09:00:00 TS 14.3072 -155.118 main 518 503 P_____________ CP012003 14.3071 -155.138 TD 30 1009 -1 1010 120 40 12 280
2003223N13224 2003 56 EP CP NOT_NAMED 2003-08-16 12:00:00 TS 14.4000 -155.700 30 1009 hurdat_epa main 503 493 O_____________ hurdat_epa CP012003 14.4000 -155.700 TD 30 1009 -1 1010 120 40 11 280
2003223N13224 2003 56 EP CP NOT_NAMED 2003-08-16 15:00:00 TS 14.5072 -156.245 main 495 488 P_____________ CP012003 14.5072 -156.243 TD 27 1009 -1 1011 110 40 11 281
2003223N13224 2003 56 EP CP NOT_NAMED 2003-08-16 18:00:00 TS 14.6000 -156.800 25 1010 hurdat_epa main 495 495 O_____________ hurdat_epa CP012003 14.6000 -156.800 TD 25 1010 -1 1012 100 40 12 278
2003223N13224 2003 56 EP CP NOT_NAMED 2003-08-16 21:00:00 TS 14.6605 -157.427 main 503 503 P_____________ CP012003 14.6605 -157.427 TD 25 1010 -1 1012 87 30 13 275
2003223N13224 2003 56 EP CP NOT_NAMED 2003-08-17 00:00:00 TS 14.7000 -158.100 25 1010 hurdat_epa main 534 O_____________ hurdat_epa CP012003 14.7000 -158.100 TD 25 1010 -1 1012 75 20 13 273

IBTrACS Databaseについて

本データベースは、米国NOAAが公開する1842年以降の世界の熱帯低気圧のベストトラックデータアーカイブInternational Best Track Archive for Climate Stewardship (IBTrACS)を、ウェブで閲覧しやすい形式に変換したものです。

最終更新日:2021-12-01